Time;durP1;ratioP1;P1;durP2;ratioP2;P2;SDS_P1;SDS_P2;PMS_P1;PMS_P2;Temp;Humidity;BMP_temperature;BMP_pressure;BME280_temperature;BME280_humidity;BME280_pressure;Samples;Min_cycle;Max_cycle;Signal;HPM_P1;HPM_P2
2021/11/06 00:00:09;;;;;;;37.83;17.50;;;6.80;99.90;;;;;;4898249;29;20068;-79
2021/11/06 00:02:34;;;;;;;42.67;17.73;;;6.80;99.90;;;;;;4881099;29;20043;-78
2021/11/06 00:05:00;;;;;;;41.33;17.03;;;6.80;99.90;;;;;;4881329;29;20048;-79
2021/11/06 00:07:26;;;;;;;42.27;17.17;;;6.80;99.90;;;;;;4881198;29;20079;-78
2021/11/06 00:09:51;;;;;;;40.53;16.63;;;6.70;99.90;;;;;;4881351;29;20080;-79
2021/11/06 00:12:17;;;;;;;42.47;18.47;;;6.70;99.90;;;;;;4896600;29;20052;-80
2021/11/06 00:14:44;;;;;;;40.20;16.70;;;6.70;99.90;;;;;;4896834;29;20485;-79
2021/11/06 00:17:09;;;;;;;38.10;16.20;;;6.70;99.90;;;;;;4897183;29;20043;-79
2021/11/06 00:19:35;;;;;;;43.43;19.50;;;6.70;99.90;;;;;;4881370;29;20041;-78
2021/11/06 00:22:01;;;;;;;43.40;18.47;;;6.60;99.90;;;;;;4881408;29;20047;-78
2021/11/06 00:24:26;;;;;;;36.27;18.03;;;6.60;99.90;;;;;;4897728;29;20127;-80
2021/11/06 00:26:52;;;;;;;38.57;16.80;;;6.60;99.90;;;;;;4896767;29;20047;-79
2021/11/06 00:29:19;;;;;;;36.63;16.97;;;6.60;99.90;;;;;;4897011;29;20044;-80
2021/11/06 00:31:46;;;;;;;33.20;16.53;;;6.60;99.90;;;;;;4898232;29;20127;-78
2021/11/06 00:34:12;;;;;;;35.70;16.30;;;6.50;99.90;;;;;;4901082;29;20451;-79
2021/11/06 00:36:38;;;;;;;31.53;15.17;;;6.50;99.90;;;;;;4885367;29;20045;-78
2021/11/06 00:39:05;;;;;;;29.90;15.03;;;6.60;99.90;;;;;;4902715;29;20550;-78
2021/11/06 00:41:30;;;;;;;27.93;14.40;;;6.60;99.90;;;;;;4886424;29;20061;-78
2021/11/06 00:43:56;;;;;;;32.43;15.60;;;6.50;99.90;;;;;;4886539;29;20048;-79
2021/11/06 00:46:22;;;;;;;30.07;14.83;;;6.50;99.90;;;;;;4886102;29;20037;-79
2021/11/06 00:48:47;;;;;;;27.50;15.23;;;6.50;99.90;;;;;;4904336;29;20036;-78
2021/11/06 00:51:13;;;;;;;31.60;15.90;;;6.50;99.90;;;;;;4888761;29;20151;-79
2021/11/06 00:53:39;;;;;;;28.40;15.17;;;6.50;99.90;;;;;;4905446;29;20047;-77
2021/11/06 00:56:05;;;;;;;26.13;14.30;;;6.40;99.90;;;;;;4889725;29;20132;-77
2021/11/06 00:58:31;;;;;;;28.00;15.03;;;6.40;99.90;;;;;;4889445;29;20051;-78
2021/11/06 01:00:56;;;;;;;27.50;15.13;;;6.40;99.90;;;;;;4903015;29;20520;-78
2021/11/06 01:03:22;;;;;;;27.73;14.97;;;6.40;99.90;;;;;;4903675;29;20055;-80
2021/11/06 01:05:48;;;;;;;26.13;15.33;;;6.40;99.90;;;;;;4901604;29;20068;-78
2021/11/06 01:08:13;;;;;;;25.10;14.83;;;6.40;99.90;;;;;;4885302;29;20161;-78
2021/11/06 01:10:40;;;;;;;26.47;15.27;;;6.40;99.90;;;;;;4900627;29;20041;-78
2021/11/06 01:13:06;;;;;;;32.40;16.47;;;6.40;99.90;;;;;;4899884;29;20436;-78
2021/11/06 01:15:31;;;;;;;25.90;14.77;;;6.40;99.90;;;;;;4899820;29;20098;-79
2021/11/06 01:17:57;;;;;;;22.30;14.17;;;6.40;99.90;;;;;;4899752;29;20043;-79
2021/11/06 01:20:23;;;;;;;24.80;14.27;;;6.40;99.90;;;;;;4900710;29;20392;-78
2021/11/06 01:22:48;;;;;;;22.83;14.87;;;6.40;99.90;;;;;;4883807;29;20549;-78
2021/11/06 01:25:15;;;;;;;21.80;13.73;;;6.40;99.90;;;;;;4883726;29;20045;-78
2021/11/06 01:27:41;;;;;;;26.00;14.27;;;6.40;99.90;;;;;;4899685;29;20041;-79
2021/11/06 01:30:08;;;;;;;23.63;14.27;;;6.40;99.90;;;;;;4899716;29;20595;-79
2021/11/06 01:32:34;;;;;;;23.77;14.10;;;6.40;99.90;;;;;;4884117;29;20126;-78
2021/11/06 01:35:01;;;;;;;26.30;15.13;;;6.30;99.90;;;;;;4899860;29;20493;-79
2021/11/06 01:37:27;;;;;;;27.83;15.57;;;6.30;99.90;;;;;;4884003;29;20040;-80
2021/11/06 01:39:53;;;;;;;24.80;13.83;;;6.40;99.90;;;;;;4883740;29;20087;-78
2021/11/06 01:42:19;;;;;;;27.00;14.90;;;6.30;99.90;;;;;;4899049;29;20549;-79
2021/11/06 01:44:45;;;;;;;24.00;14.87;;;6.30;99.90;;;;;;4884142;29;20149;-79
2021/11/06 01:47:10;;;;;;;22.73;13.97;;;6.30;99.90;;;;;;4899721;29;20392;-78
2021/11/06 01:49:38;;;;;;;24.23;15.20;;;6.30;99.90;;;;;;4899351;29;20072;-78
2021/11/06 01:52:04;;;;;;;25.30;14.03;;;6.30;99.90;;;;;;4899996;29;20040;-79
2021/11/06 01:54:30;;;;;;;23.53;14.37;;;6.20;99.80;;;;;;4899099;29;20092;-80
2021/11/06 01:56:55;;;;;;;21.53;14.07;;;6.20;99.90;;;;;;4899354;29;20481;-78
2021/11/06 01:59:23;;;;;;;25.30;15.43;;;6.20;99.90;;;;;;4884083;29;20455;-79
2021/11/06 02:01:49;;;;;;;23.77;14.27;;;6.20;99.90;;;;;;4883629;29;20040;-79
2021/11/06 02:04:15;;;;;;;27.53;15.47;;;6.20;99.90;;;;;;4899419;29;20045;-79
2021/11/06 02:06:41;;;;;;;23.30;14.40;;;6.20;99.90;;;;;;4882598;29;20060;-79
2021/11/06 02:09:07;;;;;;;26.33;15.07;;;6.20;99.90;;;;;;4898950;29;20041;-78
2021/11/06 02:11:35;;;;;;;23.13;14.63;;;6.20;99.80;;;;;;4900297;29;20136;-79
2021/11/06 02:14:00;;;;;;;22.87;14.43;;;6.10;99.80;;;;;;4900372;29;20123;-78
2021/11/06 02:16:26;;;;;;;23.77;14.83;;;6.10;99.90;;;;;;4882976;29;20060;-79
2021/11/06 02:18:53;;;;;;;22.60;13.97;;;6.00;99.80;;;;;;4898795;29;20438;-79
2021/11/06 02:21:20;;;;;;;23.20;15.90;;;6.10;99.80;;;;;;4898737;29;20105;-79
2021/11/06 02:23:48;;;;;;;24.37;15.03;;;6.10;99.80;;;;;;4898277;29;20044;-78
2021/11/06 02:26:16;;;;;;;24.90;15.23;;;6.10;99.80;;;;;;4898533;29;20032;-79
2021/11/06 02:28:51;;;;;;;24.20;15.17;;;6.10;99.90;;;;;;4883328;29;20075;-79
2021/11/06 02:31:17;;;;;;;24.50;15.27;;;6.00;99.90;;;;;;4900281;29;20097;-79
2021/11/06 02:33:43;;;;;;;27.23;16.03;;;6.00;99.80;;;;;;4882774;29;20045;-79
2021/11/06 02:36:09;;;;;;;21.17;14.37;;;6.00;99.80;;;;;;4882621;29;20061;-80
2021/11/06 02:38:34;;;;;;;21.63;14.73;;;6.00;99.90;;;;;;4898411;29;20029;-81
2021/11/06 02:41:00;;;;;;;24.80;14.63;;;6.00;99.90;;;;;;4882734;29;20552;-79
2021/11/06 02:43:27;;;;;;;23.40;14.83;;;5.90;99.90;;;;;;4883034;29;20055;-79
2021/11/06 02:45:52;;;;;;;26.07;14.90;;;5.90;99.80;;;;;;4882961;29;20033;-79
2021/11/06 02:48:18;;;;;;;23.93;14.93;;;5.90;99.90;;;;;;4897619;29;20503;-79
2021/11/06 02:50:44;;;;;;;26.27;14.63;;;5.90;99.80;;;;;;4882268;29;20036;-78
2021/11/06 02:53:10;;;;;;;25.83;14.60;;;5.90;99.80;;;;;;4898902;29;20033;-78
2021/11/06 02:55:36;;;;;;;23.17;14.63;;;5.80;99.80;;;;;;4881895;29;20187;-80
2021/11/06 02:58:02;;;;;;;26.30;15.60;;;5.90;99.90;;;;;;4897444;29;20041;-79
2021/11/06 03:00:29;;;;;;;21.57;14.73;;;5.90;99.90;;;;;;4882250;29;20040;-79
2021/11/06 03:02:55;;;;;;;25.77;14.27;;;5.80;99.90;;;;;;4882714;29;20060;-78
2021/11/06 03:05:22;;;;;;;23.07;14.83;;;5.80;99.80;;;;;;4897454;29;20044;-79
2021/11/06 03:07:48;;;;;;;26.27;15.97;;;5.80;99.90;;;;;;4881711;29;20140;-78
2021/11/06 03:10:15;;;;;;;26.90;15.27;;;5.80;99.80;;;;;;4881971;29;20075;-79
2021/11/06 03:12:42;;;;;;;21.13;14.27;;;5.80;99.80;;;;;;4898621;29;20040;-79
2021/11/06 03:15:08;;;;;;;25.00;15.23;;;5.80;99.80;;;;;;4881919;29;20105;-78
2021/11/06 03:17:34;;;;;;;25.50;15.57;;;5.70;99.90;;;;;;4897490;29;20060;-77
2021/11/06 03:20:00;;;;;;;26.27;14.97;;;5.70;99.90;;;;;;4882652;29;20036;-78
2021/11/06 03:22:28;;;;;;;27.27;14.67;;;5.70;99.90;;;;;;4898702;29;20513;-79
2021/11/06 03:24:54;;;;;;;24.63;15.37;;;5.70;99.90;;;;;;4896969;29;20087;-78
2021/11/06 03:27:20;;;;;;;28.33;15.47;;;5.70;99.90;;;;;;4897523;29;20065;-78
2021/11/06 03:29:46;;;;;;;24.23;14.67;;;5.70;99.90;;;;;;4896946;29;20041;-78
2021/11/06 03:32:11;;;;;;;23.37;14.27;;;5.60;99.90;;;;;;4897179;29;20044;-78
2021/11/06 03:34:38;;;;;;;27.93;15.60;;;5.60;99.90;;;;;;4881391;29;20048;-77
2021/11/06 03:37:04;;;;;;;26.60;15.90;;;5.60;99.90;;;;;;4881303;29;20037;-77
2021/11/06 03:39:30;;;;;;;26.03;15.03;;;5.60;99.90;;;;;;4897378;29;20032;-78
2021/11/06 03:41:56;;;;;;;23.03;14.53;;;5.60;99.90;;;;;;4881209;29;20041;-78
2021/11/06 03:44:21;;;;;;;26.83;15.13;;;5.60;99.90;;;;;;4897075;29;20044;-77
2021/11/06 03:46:47;;;;;;;27.13;14.50;;;5.60;99.90;;;;;;4881216;29;20343;-77
2021/11/06 03:49:13;;;;;;;22.93;14.17;;;5.60;99.90;;;;;;4896936;29;20044;-78
2021/11/06 03:51:39;;;;;;;26.63;15.73;;;5.60;99.90;;;;;;4881781;29;20047;-79
2021/11/06 03:54:05;;;;;;;22.83;15.00;;;5.50;99.90;;;;;;4881470;29;20036;-78
2021/11/06 03:56:31;;;;;;;22.77;14.13;;;5.50;99.90;;;;;;4896721;29;20123;-78
2021/11/06 03:58:56;;;;;;;27.70;13.93;;;5.50;99.90;;;;;;4897933;29;20040;-78
2021/11/06 04:01:22;;;;;;;23.73;15.17;;;5.50;99.90;;;;;;4897884;29;20481;-78
2021/11/06 04:03:48;;;;;;;23.50;13.97;;;5.50;99.90;;;;;;4880797;29;20131;-78
2021/11/06 04:06:15;;;;;;;19.97;13.77;;;5.50;99.90;;;;;;4896564;29;20070;-78
2021/11/06 04:08:41;;;;;;;21.33;12.97;;;5.50;99.90;;;;;;4897038;29;20100;-79
2021/11/06 04:11:07;;;;;;;23.57;14.47;;;5.50;99.90;;;;;;4896737;29;20041;-78
2021/11/06 04:13:33;;;;;;;20.23;13.30;;;5.40;99.90;;;;;;4896698;29;20500;-78
2021/11/06 04:15:59;;;;;;;18.63;12.73;;;5.40;99.90;;;;;;4881423;29;20040;-78
2021/11/06 04:18:25;;;;;;;23.40;14.53;;;5.50;99.90;;;;;;4881206;29;20089;-78
2021/11/06 04:20:51;;;;;;;22.93;14.53;;;5.50;99.90;;;;;;4881389;29;20044;-78
2021/11/06 04:23:16;;;;;;;23.00;14.00;;;5.50;99.90;;;;;;4881241;29;20481;-78
2021/11/06 04:25:44;;;;;;;24.07;14.10;;;5.50;99.90;;;;;;4896671;29;20140;-78
2021/11/06 04:28:10;;;;;;;21.27;13.43;;;5.40;99.90;;;;;;4897112;29;20033;-78
2021/11/06 04:30:36;;;;;;;20.43;12.53;;;5.50;99.90;;;;;;4896883;29;20068;-78
2021/11/06 04:33:01;;;;;;;22.40;13.97;;;5.60;99.90;;;;;;4897263;29;20052;-78
2021/11/06 04:35:27;;;;;;;20.43;13.57;;;5.50;99.90;;;;;;4896096;29;20094;-79
2021/11/06 04:37:54;;;;;;;19.43;12.83;;;5.50;99.90;;;;;;4880853;29;20041;-78
2021/11/06 04:40:19;;;;;;;23.97;13.80;;;5.50;99.90;;;;;;4896502;29;20127;-78
2021/11/06 04:42:45;;;;;;;20.87;12.97;;;5.50;99.90;;;;;;4896501;29;20064;-78
2021/11/06 04:45:12;;;;;;;22.00;13.03;;;5.50;99.90;;;;;;4881011;29;20078;-78
2021/11/06 04:47:38;;;;;;;20.20;13.17;;;5.50;99.90;;;;;;4896399;29;20485;-78
2021/11/06 04:50:06;;;;;;;23.37;13.40;;;5.50;99.90;;;;;;4896324;29;20104;-78
2021/11/06 04:52:33;;;;;;;19.57;12.90;;;5.50;99.90;;;;;;4896229;29;20036;-77
2021/11/06 04:54:59;;;;;;;21.70;13.63;;;5.50;99.90;;;;;;4896080;29;20058;-79
2021/11/06 04:57:25;;;;;;;18.80;12.17;;;5.60;99.90;;;;;;4896249;29;20430;-78
2021/11/06 04:59:51;;;;;;;19.13;13.10;;;5.60;99.90;;;;;;4880529;29;20040;-81
2021/11/06 05:02:16;;;;;;;22.73;12.83;;;5.60;99.90;;;;;;4897566;29;20037;-78
2021/11/06 05:04:43;;;;;;;25.27;13.67;;;5.50;99.90;;;;;;4896053;29;20051;-77
2021/11/06 05:07:08;;;;;;;24.47;14.40;;;5.50;99.80;;;;;;4895663;29;20048;-77
2021/11/06 05:09:34;;;;;;;24.07;13.87;;;5.50;99.90;;;;;;4880718;29;20477;-77
2021/11/06 05:12:00;;;;;;;24.40;13.90;;;5.50;99.90;;;;;;4895936;29;20395;-78
2021/11/06 05:14:25;;;;;;;22.73;13.37;;;5.50;99.80;;;;;;4881123;29;20497;-77
2021/11/06 05:16:51;;;;;;;27.63;13.90;;;5.40;99.80;;;;;;4896536;29;20430;-78
2021/11/06 05:19:17;;;;;;;25.87;14.30;;;5.40;99.80;;;;;;4883933;29;20397;-79
2021/11/06 05:21:45;;;;;;;24.30;14.17;;;5.40;99.80;;;;;;4901012;29;20520;-77
2021/11/06 05:24:11;;;;;;;20.87;13.47;;;5.30;99.80;;;;;;4899330;29;20067;-77
2021/11/06 05:26:38;;;;;;;25.13;13.93;;;5.30;99.90;;;;;;4899266;29;20041;-78
2021/11/06 05:29:06;;;;;;;24.10;13.40;;;5.30;99.90;;;;;;4899517;29;20505;-78
2021/11/06 05:31:33;;;;;;;25.57;14.27;;;5.40;99.90;;;;;;4899328;29;20039;-78
2021/11/06 05:33:59;;;;;;;25.30;14.20;;;5.40;99.90;;;;;;4900668;29;20044;-78
2021/11/06 05:36:26;;;;;;;25.13;14.17;;;5.40;99.90;;;;;;4899224;29;20052;-78
2021/11/06 05:38:52;;;;;;;23.53;14.17;;;5.40;99.90;;;;;;4899910;29;20040;-78
2021/11/06 05:41:18;;;;;;;21.33;13.47;;;5.40;99.90;;;;;;4899791;29;20355;-77
2021/11/06 05:43:44;;;;;;;25.53;14.77;;;5.40;99.90;;;;;;4883935;29;20079;-77
2021/11/06 05:46:09;;;;;;;22.37;13.60;;;5.40;99.90;;;;;;4883250;29;20482;-77
2021/11/06 05:48:35;;;;;;;22.23;13.73;;;5.40;99.90;;;;;;4899049;29;20044;-77
2021/11/06 05:51:00;;;;;;;29.27;14.43;;;5.40;99.90;;;;;;4899139;29;20064;-78
2021/11/06 05:53:26;;;;;;;22.80;13.07;;;5.40;99.90;;;;;;4899852;29;20442;-78
2021/11/06 05:55:52;;;;;;;23.83;13.73;;;5.30;99.90;;;;;;4899527;29;20061;-78
2021/11/06 05:58:18;;;;;;;27.67;13.07;;;5.30;99.90;;;;;;4899199;29;20032;-78
2021/11/06 06:00:43;;;;;;;23.07;13.40;;;5.30;99.90;;;;;;4899009;29;20047;-78
2021/11/06 06:03:09;;;;;;;28.97;14.80;;;5.30;99.90;;;;;;4883111;29;20040;-78
2021/11/06 06:05:35;;;;;;;24.37;13.13;;;5.30;99.90;;;;;;4898305;29;20037;-77
2021/11/06 06:08:01;;;;;;;23.57;14.27;;;5.30;99.90;;;;;;4881850;29;20507;-79
2021/11/06 06:10:27;;;;;;;23.60;13.87;;;5.30;99.90;;;;;;4882022;29;20124;-78
2021/11/06 06:12:53;;;;;;;24.07;13.73;;;5.30;99.90;;;;;;4897522;29;20052;-78
2021/11/06 06:15:20;;;;;;;23.07;13.63;;;5.40;99.90;;;;;;4898787;29;20049;-77
2021/11/06 06:17:47;;;;;;;26.47;13.43;;;5.30;99.90;;;;;;4897322;29;20046;-79
2021/11/06 06:20:13;;;;;;;22.73;13.40;;;5.30;99.90;;;;;;4897495;29;20039;-79
2021/11/06 06:22:39;;;;;;;26.97;13.70;;;5.30;99.90;;;;;;4882220;29;20045;-77
2021/11/06 06:25:06;;;;;;;24.20;13.57;;;5.30;99.90;;;;;;4882183;29;20489;-79
2021/11/06 06:27:33;;;;;;;26.20;14.07;;;5.30;99.90;;;;;;4882062;29;20045;-77
2021/11/06 06:29:59;;;;;;;26.20;13.97;;;5.40;99.90;;;;;;4896071;29;20132;-78
2021/11/06 06:32:24;;;;;;;21.67;13.00;;;5.30;99.90;;;;;;4897384;29;20472;-78
2021/11/06 06:34:50;;;;;;;24.90;13.97;;;5.40;99.90;;;;;;4896978;29;20520;-78
2021/11/06 06:37:16;;;;;;;28.93;14.20;;;5.40;99.90;;;;;;4881694;29;20045;-78
2021/11/06 06:39:41;;;;;;;22.93;13.47;;;5.40;99.90;;;;;;4897077;29;20045;-77
2021/11/06 06:42:07;;;;;;;25.03;13.90;;;5.40;99.90;;;;;;4896986;29;20056;-78
2021/11/06 06:44:33;;;;;;;21.90;13.07;;;5.40;99.90;;;;;;4882263;29;20438;-78
2021/11/06 06:47:00;;;;;;;23.67;13.20;;;5.50;99.90;;;;;;4897730;29;20029;-78
2021/11/06 06:49:26;;;;;;;19.97;12.87;;;5.60;99.90;;;;;;4899594;29;20029;-79
2021/11/06 06:51:53;;;;;;;25.00;13.37;;;5.60;99.90;;;;;;4899503;29;20028;-79
2021/11/06 06:54:18;;;;;;;23.53;13.23;;;5.60;99.90;;;;;;4897568;29;20119;-79
2021/11/06 06:56:44;;;;;;;26.10;15.03;;;5.50;99.90;;;;;;4898496;29;20111;-79
2021/11/06 06:59:11;;;;;;;23.63;14.30;;;5.60;99.90;;;;;;4897340;29;20047;-79
2021/11/06 07:01:38;;;;;;;23.63;13.83;;;5.80;99.90;;;;;;4881880;29;20478;-78
2021/11/06 07:04:04;;;;;;;25.73;13.63;;;6.10;99.90;;;;;;4897368;29;20092;-79
2021/11/06 07:06:30;;;;;;;22.07;13.57;;;6.30;99.90;;;;;;4856195;29;1189384;-79
2021/11/06 07:08:59;;;;;;;21.27;13.00;;;6.60;99.90;;;;;;4898347;29;20044;-79
2021/11/06 07:11:25;;;;;;;23.00;14.17;;;7.00;99.90;;;;;;4882657;29;20041;-79
2021/11/06 07:13:51;;;;;;;19.83;11.97;;;7.20;99.90;;;;;;4881924;29;20100;-80
2021/11/06 07:16:17;;;;;;;20.33;11.87;;;7.50;99.90;;;;;;4882320;29;20048;-79
2021/11/06 07:18:43;;;;;;;17.27;10.77;;;7.80;99.80;;;;;;4882474;29;20040;-79
2021/11/06 07:21:09;;;;;;;18.67;9.47;;;8.20;98.30;;;;;;4898080;29;20036;-81
2021/11/06 07:23:34;;;;;;;14.60;9.27;;;8.60;97.60;;;;;;4897681;29;20061;-80
2021/11/06 07:26:01;;;;;;;13.67;8.13;;;8.80;95.80;;;;;;4913635;29;20071;-80
2021/11/06 07:28:28;;;;;;;16.83;8.43;;;8.90;93.90;;;;;;4913251;29;20505;-79
2021/11/06 07:30:54;;;;;;;14.70;8.60;;;8.80;93.20;;;;;;4897621;29;20037;-79
2021/11/06 07:33:20;;;;;;;14.87;8.57;;;8.70;93.50;;;;;;4898306;29;20032;-81
2021/11/06 07:35:45;;;;;;;17.60;9.00;;;8.60;93.40;;;;;;4897831;29;20354;-81
2021/11/06 07:38:12;;;;;;;14.23;8.47;;;8.60;93.60;;;;;;4913073;29;20184;-81
2021/11/06 07:40:39;;;;;;;14.13;7.93;;;8.60;93.20;;;;;;4898352;29;20385;-79
2021/11/06 07:43:05;;;;;;;17.87;9.57;;;8.60;92.80;;;;;;4897623;29;20055;-78
2021/11/06 07:45:32;;;;;;;15.37;8.53;;;8.70;92.60;;;;;;4913855;29;20044;-79
2021/11/06 07:47:58;;;;;;;13.13;9.20;;;8.60;92.70;;;;;;4897865;29;20092;-77
2021/11/06 07:50:24;;;;;;;13.57;9.00;;;8.60;92.90;;;;;;4930148;29;20032;-79
2021/11/06 07:52:50;;;;;;;12.87;8.37;;;8.50;92.80;;;;;;4913256;29;20048;-79
2021/11/06 07:55:16;;;;;;;15.10;9.53;;;8.40;92.40;;;;;;4897914;29;20044;-80
2021/11/06 07:57:42;;;;;;;14.43;8.93;;;8.30;93.00;;;;;;4914163;29;20359;-79
2021/11/06 08:00:11;;;;;;;15.83;9.33;;;8.30;92.70;;;;;;4897910;29;20066;-79
2021/11/06 08:02:41;;;;;;;16.17;10.33;;;8.30;93.10;;;;;;4898446;29;20040;-80
2021/11/06 08:05:08;;;;;;;17.37;10.60;;;8.30;93.50;;;;;;4898960;29;20489;-79
2021/11/06 08:07:36;;;;;;;18.23;10.83;;;8.30;93.70;;;;;;4883820;29;20055;-78
2021/11/06 08:10:04;;;;;;;19.60;12.87;;;8.40;94.10;;;;;;4898885;29;20041;-80
2021/11/06 08:12:30;;;;;;;16.00;10.30;;;8.60;94.30;;;;;;4899970;29;20044;-79
2021/11/06 08:14:56;;;;;;;18.03;10.80;;;8.70;94.10;;;;;;4888643;29;20045;-82
2021/11/06 08:17:22;;;;;;;18.53;12.40;;;8.80;94.10;;;;;;4903094;29;20035;-78
2021/11/06 08:19:48;;;;;;;18.77;12.90;;;9.00;94.10;;;;;;4906631;29;20370;-78
2021/11/06 08:22:14;;;;;;;20.03;12.57;;;9.10;93.90;;;;;;4890884;29;20049;-77
2021/11/06 08:24:40;;;;;;;15.83;10.87;;;9.20;93.50;;;;;;4888158;29;20045;-79
2021/11/06 08:27:06;;;;;;;21.30;14.60;;;9.30;93.10;;;;;;4887627;29;20359;-81
2021/11/06 08:29:32;;;;;;;18.83;11.93;;;9.40;93.40;;;;;;4901895;29;20041;-79
2021/11/06 08:31:59;;;;;;;17.57;11.40;;;9.80;93.40;;;;;;4900441;29;20044;-79
2021/11/06 08:34:25;;;;;;;14.73;10.77;;;10.50;92.50;;;;;;4882769;29;20168;-80
2021/11/06 08:36:52;;;;;;;14.40;10.90;;;11.00;90.60;;;;;;4883783;29;20044;-80
2021/11/06 08:39:19;;;;;;;16.07;10.03;;;11.50;90.20;;;;;;4899090;29;20044;-80
2021/11/06 08:41:45;;;;;;;19.23;11.30;;;11.90;87.10;;;;;;4881605;29;20052;-79
2021/11/06 08:44:12;;;;;;;11.87;8.07;;;11.90;85.00;;;;;;4881387;29;20079;-78
2021/11/06 08:46:37;;;;;;;13.80;9.53;;;11.80;82.60;;;;;;4897557;29;20098;-79
2021/11/06 08:49:03;;;;;;;19.37;11.37;;;11.50;84.20;;;;;;4896313;29;20048;-79
2021/11/06 08:51:29;;;;;;;16.73;11.13;;;11.30;84.70;;;;;;4897393;29;20490;-79
2021/11/06 08:53:56;;;;;;;16.33;10.17;;;11.20;85.40;;;;;;4899903;29;20044;-79
2021/11/06 08:56:24;;;;;;;14.80;9.50;;;11.00;85.20;;;;;;4900877;29;20037;-81
2021/11/06 08:58:50;;;;;;;14.10;10.30;;;10.80;86.10;;;;;;4916047;29;20048;-80
2021/11/06 09:01:16;;;;;;;14.43;9.47;;;10.70;86.40;;;;;;4901555;29;20036;-80
2021/11/06 09:03:42;;;;;;;17.27;12.17;;;10.60;87.60;;;;;;4916009;29;20127;-80
2021/11/06 09:06:07;;;;;;;21.27;14.20;;;10.50;88.40;;;;;;4884842;29;20075;-80
2021/11/06 09:08:35;;;;;;;19.37;14.13;;;10.60;89.40;;;;;;4884306;29;20124;-79
2021/11/06 09:11:06;;;;;;;15.57;11.30;;;10.50;89.40;;;;;;4884830;29;20049;-79
2021/11/06 09:13:32;;;;;;;18.40;13.77;;;10.50;89.40;;;;;;4900181;29;20096;-79
2021/11/06 09:15:59;;;;;;;23.43;15.53;;;10.40;89.10;;;;;;4899980;29;20100;-79
2021/11/06 09:18:25;;;;;;;16.07;11.43;;;10.40;89.90;;;;;;4899962;29;20192;-82
2021/11/06 09:20:50;;;;;;;23.20;13.73;;;10.30;89.50;;;;;;4884455;29;20064;-79
2021/11/06 09:23:16;;;;;;;14.60;9.47;;;10.30;90.00;;;;;;4884124;29;20040;-79
2021/11/06 09:25:42;;;;;;;21.40;13.20;;;10.30;89.80;;;;;;4915581;29;20041;-79
2021/11/06 09:28:08;;;;;;;12.67;9.73;;;10.30;90.10;;;;;;4901083;29;20041;-80
2021/11/06 09:30:33;;;;;;;19.87;12.07;;;10.30;90.10;;;;;;4915544;29;20112;-80
2021/11/06 09:32:59;;;;;;;23.23;15.50;;;10.40;90.40;;;;;;4900770;29;20037;-80
2021/11/06 09:35:25;;;;;;;13.77;9.83;;;10.50;90.70;;;;;;4901145;29;20088;-82
2021/11/06 09:37:51;;;;;;;17.07;10.47;;;10.70;90.40;;;;;;4915927;29;20076;-81
2021/11/06 09:40:17;;;;;;;18.20;11.80;;;10.70;90.00;;;;;;4900903;29;20405;-82
2021/11/06 09:42:43;;;;;;;16.37;9.03;;;10.70;90.10;;;;;;4884737;29;20048;-81
2021/11/06 09:45:11;;;;;;;18.83;12.20;;;10.80;89.60;;;;;;4915459;29;20041;-80
2021/11/06 09:47:42;;;;;;;13.73;9.67;;;11.00;90.20;;;;;;4884242;29;20044;-81
2021/11/06 09:50:09;;;;;;;14.73;9.17;;;11.10;89.80;;;;;;4900025;29;20040;-81
2021/11/06 09:52:35;;;;;;;15.13;9.30;;;11.20;88.30;;;;;;4915536;29;20113;-81
2021/11/06 09:55:00;;;;;;;16.77;12.37;;;11.20;87.20;;;;;;4899845;29;20040;-81
2021/11/06 09:57:26;;;;;;;13.03;9.03;;;11.30;88.70;;;;;;4884879;29;20047;-81
2021/11/06 09:59:52;;;;;;;13.10;10.27;;;11.50;88.40;;;;;;4915055;29;20041;-81
2021/11/06 10:02:18;;;;;;;18.20;12.47;;;11.60;87.60;;;;;;4899270;29;20492;-80
2021/11/06 10:04:44;;;;;;;16.27;11.30;;;11.70;88.60;;;;;;4883616;29;20068;-81
2021/11/06 10:07:21;;;;;;;9.37;6.10;;;11.80;88.20;;;;;;4900225;29;20180;-80
2021/11/06 10:10:03;;;;;;;17.07;10.83;;;12.00;85.70;;;;;;4899445;29;20210;-80
2021/11/06 10:12:44;;;;;;;14.90;8.85;;;12.00;86.40;;;;;;4899385;29;20032;-81
2021/11/06 10:15:10;;;;;;;15.50;10.77;;;12.10;85.60;;;;;;4901335;29;20061;-80
2021/11/06 10:17:36;;;;;;;13.00;8.17;;;12.10;85.40;;;;;;4884249;29;20425;-80
2021/11/06 10:20:20;;;;;;;10.77;7.37;;;12.10;84.20;;;;;;4901375;29;20075;-80
2021/11/06 10:22:46;;;;;;;17.20;11.00;;;12.20;84.70;;;;;;4900046;29;20036;-79
2021/11/06 10:25:14;;;;;;;10.47;7.47;;;12.30;85.30;;;;;;4899694;29;20045;-79
2021/11/06 10:27:42;;;;;;;16.63;11.23;;;12.40;85.20;;;;;;4900492;29;20036;-80
2021/11/06 10:30:18;;;;;;;13.23;8.00;;;12.50;85.10;;;;;;4884615;29;20037;-79
2021/11/06 10:33:08;;;;;;;11.70;8.47;;;12.60;84.60;;;;;;4899063;29;20041;-80
2021/11/06 10:35:43;;;;;;;10.48;6.40;;;12.50;84.10;;;;;;4898895;29;20056;-82
2021/11/06 10:38:11;;;;;;;11.85;9.32;;;12.40;83.40;;;;;;4899110;29;20104;-81
2021/11/06 10:40:46;;;;;;;8.70;6.43;;;12.30;83.20;;;;;;4898520;29;20033;-81
2021/11/06 10:43:14;;;;;;;8.57;6.10;;;12.20;83.50;;;;;;4898454;29;20047;-81
2021/11/06 10:45:49;;;;;;;15.40;10.77;;;12.10;83.00;;;;;;4898653;29;20045;-81
2021/11/06 10:48:18;;;;;;;11.73;8.43;;;12.10;84.30;;;;;;4898885;29;20119;-80
2021/11/06 10:50:48;;;;;;;7.93;6.07;;;12.10;84.60;;;;;;4898295;29;20124;-81
2021/11/06 10:53:40;;;;;;;12.33;8.10;;;12.00;83.80;;;;;;4898796;29;20075;-78
2021/11/06 10:56:21;;;;;;;10.50;5.57;;;11.90;83.70;;;;;;4898418;29;20389;-80
2021/11/06 10:58:49;;;;;;;8.00;4.53;;;11.80;83.30;;;;;;4899055;29;20380;-80
2021/11/06 11:01:21;;;;;;;11.90;7.30;;;11.70;82.50;;;;;;4914375;29;20051;-78
2021/11/06 11:03:49;;;;;;;7.10;4.85;;;11.60;84.20;;;;;;4900532;29;20049;-81
2021/11/06 11:06:21;;;;;;;10.30;7.97;;;11.60;83.90;;;;;;4899059;29;20032;-79
2021/11/06 11:08:50;;;;;;;9.60;6.07;;;11.50;84.40;;;;;;4899878;29;20124;-79
2021/11/06 11:11:19;;;;;;;7.37;4.70;;;11.50;84.50;;;;;;4901134;29;20131;-80
2021/11/06 11:13:53;;;;;;;9.27;6.60;;;11.50;83.90;;;;;;4903630;29;20037;-78
2021/11/06 11:16:19;;;;;;;8.07;5.87;;;11.60;85.10;;;;;;4902934;29;20040;-80
2021/11/06 11:18:47;;;;;;;8.00;4.80;;;11.60;84.50;;;;;;4906188;29;20041;-81
2021/11/06 11:21:25;;;;;;;11.37;6.70;;;11.70;84.60;;;;;;4920954;29;20045;-80
2021/11/06 11:23:55;;;;;;;7.30;5.10;;;11.90;85.10;;;;;;4903452;29;20151;-77
2021/11/06 11:26:27;;;;;;;7.93;4.97;;;12.20;84.40;;;;;;4900355;29;20442;-78
2021/11/06 11:28:54;;;;;;;8.57;6.23;;;12.30;82.80;;;;;;4907999;29;20037;-82
2021/11/06 11:31:24;;;;;;;11.90;7.63;;;12.40;82.80;;;;;;4903959;29;20042;-81
2021/11/06 11:33:50;;;;;;;14.00;8.60;;;12.60;83.90;;;;;;4898606;29;20075;-79
2021/11/06 11:36:20;;;;;;;9.98;7.13;;;12.80;83.50;;;;;;4898876;29;20434;-79
2021/11/06 11:38:46;;;;;;;10.23;5.72;;;13.00;82.60;;;;;;4899583;29;20039;-79
2021/11/06 11:41:48;;;;;;;11.82;7.72;;;13.10;82.50;;;;;;4925705;29;20045;-80
2021/11/06 11:44:38;;;;;;;7.75;5.22;;;13.30;81.60;;;;;;4897734;29;20502;-80
2021/11/06 11:47:25;;;;;;;12.55;8.52;;;13.40;81.20;;;;;;4898753;29;20037;-80
2021/11/06 11:49:53;;;;;;;10.00;7.63;;;13.50;81.20;;;;;;4898012;29;20361;-80
2021/11/06 11:52:34;;;;;;;7.25;4.93;;;13.50;80.70;;;;;;4929118;29;20041;-80
2021/11/06 11:55:12;;;;;;;13.88;6.25;;;13.50;79.40;;;;;;4897544;29;20477;-81
2021/11/06 11:57:42;;;;;;;15.95;9.25;;;13.60;80.00;;;;;;4897385;29;20152;-79
2021/11/06 12:00:17;;;;;;;11.88;7.20;;;13.60;80.70;;;;;;4913387;29;20058;-81
2021/11/06 12:02:59;;;;;;;10.80;7.05;;;13.70;80.30;;;;;;4897576;29;20047;-81
2021/11/06 12:05:47;;;;;;;7.43;5.40;;;13.70;80.10;;;;;;4899007;29;20101;-81
2021/11/06 12:08:14;;;;;;;9.90;7.70;;;13.70;79.90;;;;;;4897976;29;20052;-80
2021/11/06 12:10:43;;;;;;;10.38;6.47;;;13.60;80.70;;;;;;4897588;29;20044;-81
2021/11/06 12:13:27;;;;;;;12.50;6.63;;;13.60;79.80;;;;;;4898215;29;20036;-81
2021/11/06 12:16:12;;;;;;;10.55;7.28;;;13.60;80.30;;;;;;4896876;29;20044;-80
2021/11/06 12:18:44;;;;;;;13.05;7.40;;;13.60;80.90;;;;;;4898058;29;20056;-81
2021/11/06 12:21:20;;;;;;;10.88;7.10;;;13.60;81.00;;;;;;4897020;29;20036;-81
2021/11/06 12:24:16;;;;;;;13.35;9.32;;;13.50;80.60;;;;;;4896858;29;20075;-81
2021/11/06 12:26:48;;;;;;;10.93;6.93;;;13.50;81.50;;;;;;4894970;29;20080;-80
2021/11/06 12:29:21;;;;;;;10.00;6.72;;;13.40;81.20;;;;;;4901842;29;20338;-80
2021/11/06 12:31:49;;;;;;;9.63;7.43;;;13.30;81.20;;;;;;4901344;29;20171;-80
2021/11/06 12:34:41;;;;;;;11.93;7.30;;;13.30;81.70;;;;;;4902014;29;20123;-80
2021/11/06 12:37:12;;;;;;;12.95;9.63;;;13.30;82.00;;;;;;4901338;29;20426;-79
2021/11/06 12:39:53;;;;;;;7.28;5.78;;;13.20;82.20;;;;;;4916009;29;20056;-80